Time;durP1;ratioP1;P1;durP2;ratioP2;P2;SDS_P1;SDS_P2;PMS_P1;PMS_P2;Temp;Humidity;BMP_temperature;BMP_pressure;BME280_temperature;BME280_humidity;BME280_pressure;Samples;Min_cycle;Max_cycle;Signal;HPM_P1;HPM_P2
2022/10/24 00:02:11;;;;;;;38.70;29.65;;;;;;;11.90;94.44;100693.58;1765208;80;25829;-77
2022/10/24 00:04:39;;;;;;;39.70;30.30;;;;;;;11.91;94.41;100686.36;1799054;77;28281;-77
2022/10/24 00:07:07;;;;;;;38.88;30.52;;;;;;;11.93;94.38;100699.08;1794071;79;26383;-78
2022/10/24 00:09:35;;;;;;;39.38;29.12;;;;;;;11.92;94.40;100704.95;1753606;80;25701;-78
2022/10/24 00:12:03;;;;;;;40.20;30.25;;;;;;;11.93;94.51;100701.76;1737272;80;25736;-78
2022/10/24 00:14:31;;;;;;;48.48;33.05;;;;;;;11.94;94.35;100697.53;1799183;78;25759;-77
2022/10/24 00:16:58;;;;;;;38.78;29.87;;;;;;;11.93;94.33;100702.56;1803841;77;27460;-77
2022/10/24 00:19:24;;;;;;;43.25;31.90;;;;;;;11.91;94.19;100701.13;1768364;80;25887;-77
2022/10/24 00:21:51;;;;;;;40.73;29.57;;;;;;;11.89;94.22;100706.66;1761686;80;25793;-78
2022/10/24 00:24:17;;;;;;;35.60;28.85;;;;;;;11.89;94.19;100703.98;1742440;81;26379;-78
2022/10/24 00:26:44;;;;;;;40.67;30.37;;;;;;;11.87;94.02;100703.88;1808355;77;25829;-78
2022/10/24 00:29:10;;;;;;;41.45;30.23;;;;;;;11.86;94.20;100702.20;1796230;77;28323;-78
2022/10/24 00:31:37;;;;;;;44.40;33.30;;;;;;;11.86;94.23;100700.35;1793634;78;26450;-78
2022/10/24 00:34:04;;;;;;;44.95;33.00;;;;;;;11.85;94.34;100699.18;1789890;79;26338;-78
2022/10/24 00:36:31;;;;;;;50.10;33.53;;;;;;;11.86;94.49;100696.83;1795438;79;26551;-78
2022/10/24 00:38:57;;;;;;;53.20;34.40;;;;;;;11.87;94.57;100700.66;1793186;79;25726;-78
2022/10/24 00:41:29;;;;;;;58.08;33.90;;;;;;;11.86;94.59;100689.61;1798361;78;28283;-78
2022/10/24 00:44:27;;;;;;;49.35;33.58;;;;;;;11.85;94.51;100685.26;1798014;77;25945;-78
2022/10/24 00:47:10;;;;;;;41.58;30.45;;;;;;;11.86;94.43;100680.73;1762985;79;25780;-78
2022/10/24 00:49:48;;;;;;;41.80;29.63;;;;;;;11.84;94.63;100679.59;1789067;77;25807;-79
2022/10/24 00:52:19;;;;;;;40.88;28.83;;;;;;;11.85;94.67;100676.37;1791472;77;25906;-78
2022/10/24 00:54:46;;;;;;;37.88;29.70;;;;;;;11.82;94.67;100684.31;1793646;78;27451;-78
2022/10/24 00:57:27;;;;;;;38.30;29.05;;;;;;;11.79;94.84;100685.19;1762809;80;26430;-79
2022/10/24 00:59:58;;;;;;;41.80;30.05;;;;;;;11.79;94.97;100688.72;1774367;77;26528;-78
2022/10/24 01:02:26;;;;;;;34.67;27.42;;;;;;;11.81;95.16;100689.86;1804012;78;26752;-78
2022/10/24 01:04:55;;;;;;;35.25;28.40;;;;;;;11.81;95.18;100695.22;1763642;80;25902;-78
2022/10/24 01:07:36;;;;;;;32.08;25.97;;;;;;;11.80;95.22;100685.53;1766522;80;27432;-78
2022/10/24 01:10:29;;;;;;;32.25;26.65;;;;;;;11.81;95.26;100677.27;1786942;79;25806;-78
2022/10/24 01:13:12;;;;;;;36.93;28.35;;;;;;;11.81;95.06;100672.41;1792123;78;25758;-78
2022/10/24 01:16:05;;;;;;;35.13;26.93;;;;;;;11.79;94.94;100669.09;1781953;78;26276;-77
2022/10/24 01:18:55;;;;;;;36.25;27.50;;;;;;;11.79;94.90;100669.93;1796820;77;25861;-78
2022/10/24 01:21:27;;;;;;;38.85;28.20;;;;;;;11.77;94.89;100659.91;1806657;78;27397;-78
2022/10/24 01:24:07;;;;;;;36.08;26.97;;;;;;;11.76;94.83;100660.91;1810037;78;26423;-78
2022/10/24 01:26:51;;;;;;;33.53;26.30;;;;;;;11.75;94.99;100669.16;1801378;78;26453;-77
2022/10/24 01:29:38;;;;;;;39.67;29.77;;;;;;;11.74;95.13;100666.98;1788343;78;25786;-77
2022/10/24 01:32:33;;;;;;;38.65;29.05;;;;;;;11.74;95.19;100660.81;1793855;77;26423;-79
2022/10/24 01:35:35;;;;;;;35.38;26.93;;;;;;;11.72;95.24;100658.30;1760125;80;27468;-78
2022/10/24 01:38:10;;;;;;;33.25;25.75;;;;;;;11.70;95.19;100650.95;1797058;77;26565;-79
2022/10/24 01:40:54;;;;;;;38.05;25.72;;;;;;;11.68;95.24;100643.61;1752174;79;25948;-79
2022/10/24 01:43:34;;;;;;;33.65;24.72;;;;;;;11.67;95.26;100635.26;1743052;81;25748;-78
2022/10/24 01:46:10;;;;;;;34.50;25.92;;;;;;;11.66;95.23;100622.81;1740035;81;27103;-77
2022/10/24 01:48:43;;;;;;;31.87;24.67;;;;;;;11.64;95.28;100613.63;1749968;81;27473;-77
2022/10/24 01:51:13;;;;;;;34.78;26.70;;;;;;;11.63;95.35;100605.25;1766632;80;26605;-77
2022/10/24 01:53:42;;;;;;;31.17;24.47;;;;;;;11.60;95.44;100598.94;1761144;80;25692;-77
2022/10/24 01:56:09;;;;;;;36.23;25.35;;;;;;;11.58;95.61;100596.97;1764909;80;25828;-77
2022/10/24 01:58:35;;;;;;;31.87;25.25;;;;;;;11.58;95.83;100585.40;1761019;80;26254;-77
2022/10/24 02:01:07;;;;;;;37.23;26.65;;;;;;;11.57;95.98;100586.41;1776898;80;27438;-77
2022/10/24 02:03:40;;;;;;;33.45;25.65;;;;;;;11.57;96.14;100582.38;1739302;81;25845;-77
2022/10/24 02:06:31;;;;;;;35.63;26.95;;;;;;;11.55;96.19;100579.06;1755253;81;25712;-77
2022/10/24 02:09:04;;;;;;;35.83;26.97;;;;;;;11.51;96.23;100585.34;1730027;81;25742;-78
2022/10/24 02:11:33;;;;;;;32.55;24.35;;;;;;;11.48;96.54;100580.88;1744125;80;25772;-78
2022/10/24 02:14:20;;;;;;;34.45;25.68;;;;;;;11.47;96.61;100576.53;1744968;80;27471;-78
2022/10/24 02:16:47;;;;;;;34.40;26.97;;;;;;;11.46;96.68;100578.37;1738599;81;26174;-78
2022/10/24 02:19:13;;;;;;;33.98;24.50;;;;;;;11.45;96.72;100588.80;1732656;80;26461;-78
2022/10/24 02:22:11;;;;;;;33.67;26.37;;;;;;;11.46;96.79;100593.66;1766093;80;26039;-78
2022/10/24 02:24:43;;;;;;;33.83;25.37;;;;;;;11.47;96.79;100593.95;1759925;80;25304;-78
2022/10/24 02:27:14;;;;;;;34.98;25.60;;;;;;;11.45;96.78;100594.16;1771726;80;27719;-78
2022/10/24 02:29:49;;;;;;;;;;;;;;;11.46;96.69;100591.78;1756953;79;25883;-78
2022/10/24 02:32:21;;;;;;;38.95;26.20;;;;;;;11.47;96.63;100589.94;1737392;80;25879;-78
2022/10/24 02:34:48;;;;;;;32.55;24.63;;;;;;;11.45;96.65;100590.64;1748716;80;25922;-78
2022/10/24 02:37:17;;;;;;;35.50;24.92;;;;;;;11.44;96.56;100587.13;1744338;80;26510;-78
2022/10/24 02:39:46;;;;;;;35.98;26.57;;;;;;;11.45;96.61;100591.98;1754063;80;28051;-78
2022/10/24 02:42:14;;;;;;;30.80;24.15;;;;;;;11.46;96.58;100585.08;1757990;79;25901;-78
2022/10/24 02:44:45;;;;;;;34.78;25.23;;;;;;;11.47;96.44;100584.07;1770642;79;25773;-78
2022/10/24 02:47:13;;;;;;;35.87;26.63;;;;;;;11.49;96.38;100578.50;1767369;79;26176;-78
2022/10/24 02:49:40;;;;;;;39.15;24.55;;;;;;;11.51;96.21;100573.27;1768438;80;26017;-78
2022/10/24 02:52:08;;;;;;;37.78;24.75;;;;;;;11.51;96.07;100575.11;1731672;80;26029;-78
2022/10/24 02:54:35;;;;;;;30.62;24.10;;;;;;;11.52;96.03;100586.17;1788979;77;26114;-78
2022/10/24 02:57:03;;;;;;;35.25;24.85;;;;;;;11.49;96.06;100580.68;1801739;77;25919;-78
2022/10/24 02:59:30;;;;;;;25.17;22.00;;;;;;;11.48;95.91;100584.38;1803851;78;26441;-78
2022/10/24 03:01:56;;;;;;;32.20;23.87;;;;;;;11.47;95.70;100581.89;1796613;77;25823;-78
2022/10/24 03:04:22;;;;;;;32.38;23.45;;;;;;;11.46;95.49;100574.34;1762338;80;28180;-78
2022/10/24 03:06:49;;;;;;;29.50;22.67;;;;;;;11.45;95.33;100565.16;1797000;78;25742;-78
2022/10/24 03:09:15;;;;;;;30.12;22.80;;;;;;;11.43;95.20;100559.16;1757453;80;25472;-78
2022/10/24 03:11:41;;;;;;;30.57;23.20;;;;;;;11.42;95.15;100554.30;1791132;78;25828;-78
2022/10/24 03:14:08;;;;;;;28.47;23.55;;;;;;;11.41;95.12;100557.19;1752217;80;26315;-78
2022/10/24 03:16:34;;;;;;;29.00;21.15;;;;;;;11.40;95.03;100549.64;1787385;78;28873;-78
2022/10/24 03:19:00;;;;;;;31.77;23.50;;;;;;;11.38;94.71;100541.47;1750050;80;25755;-78
2022/10/24 03:21:27;;;;;;;29.90;23.75;;;;;;;11.37;94.79;100539.83;1780787;78;25816;-78
2022/10/24 03:23:53;;;;;;;33.42;23.25;;;;;;;11.35;94.77;100535.17;1749494;80;25919;-78
2022/10/24 03:26:20;;;;;;;30.97;22.45;;;;;;;11.35;94.84;100535.17;1754569;80;25855;-78
2022/10/24 03:28:46;;;;;;;29.42;22.27;;;;;;;11.35;94.97;100532.48;1785734;78;28637;-78
2022/10/24 03:31:12;;;;;;;28.00;21.27;;;;;;;11.34;95.14;100530.31;1755525;80;25700;-78
2022/10/24 03:33:38;;;;;;;29.82;24.32;;;;;;;11.35;95.40;100520.42;1786240;78;25883;-78
2022/10/24 03:36:05;;;;;;;31.77;23.98;;;;;;;11.36;95.55;100522.90;1753536;80;25640;-79
2022/10/24 03:38:31;;;;;;;35.50;24.40;;;;;;;11.36;95.59;100521.55;1750811;80;25927;-78
2022/10/24 03:40:58;;;;;;;32.55;23.90;;;;;;;11.35;95.54;100518.58;1784721;78;28222;-78
2022/10/24 03:43:24;;;;;;;33.33;25.40;;;;;;;11.34;95.57;100509.36;1779669;78;26449;-78
2022/10/24 03:45:50;;;;;;;35.00;25.08;;;;;;;11.33;95.44;100513.08;1779449;78;25830;-78
2022/10/24 03:48:17;;;;;;;35.45;24.37;;;;;;;11.30;95.49;100514.30;1736960;80;26426;-78
2022/10/24 03:50:43;;;;;;;35.65;25.32;;;;;;;11.30;95.57;100515.63;1728396;80;25931;-78
2022/10/24 03:53:09;;;;;;;36.15;26.07;;;;;;;11.31;95.68;100528.53;1701379;82;27454;-78
2022/10/24 03:55:36;;;;;;;34.03;25.40;;;;;;;11.32;95.90;100542.25;1740773;80;25794;-78
2022/10/24 03:58:02;;;;;;;34.45;23.70;;;;;;;11.34;96.12;100537.52;1746335;80;25756;-78
2022/10/24 04:00:28;;;;;;;31.00;23.52;;;;;;;11.36;96.14;100537.64;1747579;81;25791;-78
2022/10/24 04:02:55;;;;;;;31.50;22.62;;;;;;;11.37;96.19;100527.76;1742379;80;25701;-78
2022/10/24 04:05:21;;;;;;;31.90;23.38;;;;;;;11.39;96.25;100524.38;1740856;81;27541;-78
2022/10/24 04:07:48;;;;;;;32.83;24.07;;;;;;;11.40;96.24;100516.62;1708880;82;26342;-78
2022/10/24 04:10:14;;;;;;;31.93;22.45;;;;;;;11.40;96.25;100509.41;1731721;81;25978;-78
2022/10/24 04:12:40;;;;;;;29.15;22.30;;;;;;;11.40;96.25;100498.69;1720837;82;26437;-78
2022/10/24 04:15:07;;;;;;;32.90;22.37;;;;;;;11.41;96.35;100494.16;1706936;82;26612;-78
2022/10/24 04:17:34;;;;;;;30.37;22.93;;;;;;;11.40;96.44;100485.28;1718865;82;27463;-78
2022/10/24 04:20:00;;;;;;;32.30;22.90;;;;;;;11.39;96.47;100487.66;1711839;82;25794;-78
2022/10/24 04:22:26;;;;;;;33.95;23.62;;;;;;;11.38;96.72;100485.15;1712571;82;25717;-78
2022/10/24 04:24:53;;;;;;;34.78;23.95;;;;;;;11.36;96.87;100479.16;1712188;82;26718;-78
2022/10/24 04:27:19;;;;;;;38.67;24.80;;;;;;;11.36;97.08;100471.95;1720747;82;25826;-78
2022/10/24 04:29:45;;;;;;;33.20;27.58;;;;;;;11.38;97.17;100460.51;1718334;82;27466;-78
2022/10/24 04:32:12;;;;;;;36.68;26.73;;;;;;;11.39;97.24;100460.84;1717205;82;25866;-78
2022/10/24 04:34:38;;;;;;;30.52;23.42;;;;;;;11.38;97.26;100448.44;1723230;82;25587;-78
2022/10/24 04:37:04;;;;;;;41.18;26.45;;;;;;;11.39;97.26;100440.73;1717496;82;25838;-78
2022/10/24 04:39:31;;;;;;;34.98;23.95;;;;;;;11.35;97.16;100442.15;1716935;82;25289;-78
2022/10/24 04:41:57;;;;;;;31.00;23.25;;;;;;;11.33;97.33;100438.00;1715876;81;27471;-78
2022/10/24 04:44:23;;;;;;;32.78;23.65;;;;;;;11.33;97.53;100438.00;1753522;80;26443;-78
2022/10/24 04:46:50;;;;;;;33.58;22.73;;;;;;;11.32;97.61;100442.52;1753500;80;25985;-78
2022/10/24 04:49:17;;;;;;;28.85;21.50;;;;;;;11.33;97.82;100447.37;1751151;80;25829;-78
2022/10/24 04:51:43;;;;;;;31.42;23.87;;;;;;;11.31;97.93;100447.55;1751211;80;25854;-78
2022/10/24 04:54:09;;;;;;;32.25;22.48;;;;;;;11.33;98.06;100439.34;1788941;78;27437;-78
2022/10/24 04:56:35;;;;;;;30.82;22.25;;;;;;;11.33;98.13;100430.75;1793979;78;25830;-78
2022/10/24 04:59:03;;;;;;;30.60;22.65;;;;;;;11.34;98.26;100419.02;1792516;78;25816;-78
2022/10/24 05:01:29;;;;;;;33.23;24.57;;;;;;;11.36;98.32;100412.11;1752060;80;25846;-78
2022/10/24 05:03:55;;;;;;;34.05;24.60;;;;;;;11.36;98.34;100411.61;1796313;78;25682;-78
2022/10/24 05:06:21;;;;;;;28.40;22.62;;;;;;;11.37;98.44;100413.28;1789856;79;27447;-78
2022/10/24 05:08:48;;;;;;;33.35;23.22;;;;;;;11.38;98.49;100415.42;1751551;79;25898;-78
2022/10/24 05:11:14;;;;;;;34.90;24.15;;;;;;;11.38;98.59;100421.62;1789732;79;25875;-78
2022/10/24 05:13:41;;;;;;;28.07;22.17;;;;;;;11.39;98.69;100436.70;1791984;79;25756;-78
2022/10/24 05:16:07;;;;;;;33.10;23.25;;;;;;;11.38;98.77;100435.53;1791050;79;25820;-78
2022/10/24 05:18:34;;;;;;;30.45;23.12;;;;;;;11.35;98.80;100442.66;1789308;78;27462;-78
2022/10/24 05:21:00;;;;;;;29.50;22.77;;;;;;;11.35;98.90;100448.85;1753555;80;26437;-78
2022/10/24 05:23:27;;;;;;;26.42;20.72;;;;;;;11.36;98.99;100455.02;1792078;79;26600;-78
2022/10/24 05:25:53;;;;;;;39.13;27.65;;;;;;;11.37;99.03;100460.71;1789227;79;26315;-79
2022/10/24 05:28:20;;;;;;;37.10;25.70;;;;;;;11.39;99.04;100458.66;1752124;80;25777;-78
2022/10/24 05:30:46;;;;;;;33.95;24.82;;;;;;;11.39;99.14;100459.50;1791231;78;27446;-78
2022/10/24 05:33:12;;;;;;;33.50;25.35;;;;;;;11.41;99.21;100462.81;1764025;79;25790;-78
2022/10/24 05:35:40;;;;;;;33.63;26.68;;;;;;;11.42;99.28;100455.06;1799088;78;25288;-78
2022/10/24 05:38:07;;;;;;;32.85;25.25;;;;;;;11.46;99.35;100462.23;1794911;77;25820;-78
2022/10/24 05:40:33;;;;;;;38.53;28.42;;;;;;;11.47;99.41;100444.59;1786254;77;25855;-78
2022/10/24 05:42:59;;;;;;;42.53;29.82;;;;;;;11.50;99.47;100437.47;1757656;80;27448;-78
2022/10/24 05:45:26;;;;;;;35.48;26.73;;;;;;;11.51;99.52;100440.99;1726922;80;25932;-78
2022/10/24 05:47:52;;;;;;;35.17;25.70;;;;;;;11.54;99.55;100445.98;1729171;80;25734;-78
2022/10/24 05:50:19;;;;;;;34.08;24.02;;;;;;;11.56;99.63;100450.63;1739401;80;25918;-78
2022/10/24 05:52:45;;;;;;;31.87;23.40;;;;;;;11.57;99.75;100443.72;1736325;80;25909;-78
2022/10/24 05:55:11;;;;;;;31.35;23.22;;;;;;;11.59;99.81;100440.33;1734287;81;27517;-78
2022/10/24 05:57:38;;;;;;;33.13;22.45;;;;;;;11.61;99.91;100434.25;1728674;81;25727;-78
2022/10/24 06:00:09;;;;;;;34.85;25.25;;;;;;;11.65;100.00;100436.05;1733076;80;26546;-78
2022/10/24 06:02:39;;;;;;;32.45;23.45;;;;;;;11.68;100.00;100437.00;1732182;80;25931;-78
2022/10/24 06:05:07;;;;;;;31.20;24.47;;;;;;;11.70;100.00;100432.27;1720900;80;25673;-78
2022/10/24 06:07:34;;;;;;;31.27;23.90;;;;;;;11.73;100.00;100432.39;1743032;80;28319;-78
2022/10/24 06:10:01;;;;;;;33.78;23.00;;;;;;;11.75;100.00;100424.97;1735743;81;26231;-78
2022/10/24 06:12:27;;;;;;;35.15;22.48;;;;;;;11.76;100.00;100412.69;1732751;81;26476;-78
2022/10/24 06:14:59;;;;;;;29.95;22.20;;;;;;;11.78;100.00;100405.80;1742749;80;25772;-78
2022/10/24 06:17:25;;;;;;;34.27;23.05;;;;;;;11.79;100.00;100408.27;1743406;80;26375;-78
2022/10/24 06:19:52;;;;;;;29.45;22.02;;;;;;;11.79;100.00;100408.27;1743040;81;27455;-78
2022/10/24 06:22:22;;;;;;;31.68;22.48;;;;;;;11.81;100.00;100415.61;1744441;81;26335;-78
2022/10/24 06:24:47;;;;;;;34.15;23.00;;;;;;;11.82;100.00;100419.97;1745949;81;25861;-78
2022/10/24 06:27:14;;;;;;;32.75;22.30;;;;;;;11.83;100.00;100424.80;1742893;81;26675;-78
2022/10/24 06:29:41;;;;;;;32.00;22.02;;;;;;;11.84;100.00;100442.57;1744596;80;26360;-78
2022/10/24 06:32:07;;;;;;;32.53;22.85;;;;;;;11.85;100.00;100449.58;1744548;80;27449;-78
2022/10/24 06:34:34;;;;;;;31.35;21.48;;;;;;;11.87;100.00;100448.36;1744588;80;25787;-78
2022/10/24 06:37:01;;;;;;;28.45;22.55;;;;;;;11.90;100.00;100465.92;1738431;80;25304;-78
2022/10/24 06:39:27;;;;;;;33.95;23.20;;;;;;;11.91;100.00;100472.43;1745070;80;26452;-78
2022/10/24 06:41:53;;;;;;;32.63;23.00;;;;;;;11.92;100.00;100479.47;1744774;80;26359;-79
2022/10/24 06:44:20;;;;;;;28.70;22.62;;;;;;;11.95;100.00;100480.43;1739710;80;28287;-78
2022/10/24 06:46:46;;;;;;;31.93;21.87;;;;;;;11.98;100.00;100473.80;1764420;80;25229;-78
2022/10/24 06:49:13;;;;;;;28.85;22.10;;;;;;;12.01;100.00;100485.50;1764561;80;26219;-76
2022/10/24 06:51:40;;;;;;;30.30;22.60;;;;;;;12.02;100.00;100492.01;1761835;80;25817;-78
2022/10/24 06:54:07;;;;;;;33.85;24.00;;;;;;;12.04;100.00;100474.38;1765946;80;25858;-78
2022/10/24 06:56:33;;;;;;;36.00;25.32;;;;;;;12.05;100.00;100485.42;1762873;79;27438;-78
2022/10/24 06:58:59;;;;;;;35.43;25.08;;;;;;;12.07;100.00;100476.14;1763558;79;26073;-78
2022/10/24 07:01:26;;;;;;;31.60;23.62;;;;;;;12.10;100.00;100477.61;1764744;80;25818;-78
2022/10/24 07:03:54;;;;;;;37.67;25.95;;;;;;;12.10;100.00;100469.02;1764755;79;26626;-78
2022/10/24 07:06:27;;;;;;;43.55;30.62;;;;;;;12.09;100.00;100461.17;1737315;81;25731;-78
2022/10/24 07:08:57;;;;;;;44.50;29.52;;;;;;;12.07;100.00;100473.97;1787157;78;28368;-78
2022/10/24 07:11:25;;;;;;;46.07;33.70;;;;;;;12.04;100.00;100471.16;1783531;79;25834;-78
2022/10/24 07:13:51;;;;;;;52.45;35.25;;;;;;;12.02;100.00;100477.75;1796228;77;25819;-78
2022/10/24 07:16:18;;;;;;;50.98;34.95;;;;;;;12.00;100.00;100487.35;1795197;77;25908;-78
2022/10/24 07:18:44;;;;;;;51.53;36.60;;;;;;;12.01;100.00;100485.50;1788153;77;25712;-78
2022/10/24 07:21:27;;;;;;;47.80;35.45;;;;;;;12.04;100.00;100496.66;1804327;77;27432;-78
2022/10/24 07:23:55;;;;;;;43.73;30.52;;;;;;;12.08;100.00;100494.43;1771333;80;25979;-78
2022/10/24 07:26:23;;;;;;;40.17;27.95;;;;;;;12.12;100.00;100483.09;1815806;78;25782;-78
2022/10/24 07:28:54;;;;;;;28.60;21.73;;;;;;;12.19;100.00;100484.44;1793944;77;26544;-78
2022/10/24 07:31:25;;;;;;;24.95;19.42;;;;;;;12.23;100.00;100479.81;1801848;77;25747;-77
2022/10/24 07:33:52;;;;;;;28.87;21.37;;;;;;;12.28;100.00;100487.28;1800550;78;27865;-78
2022/10/24 07:36:22;;;;;;;26.25;20.15;;;;;;;12.33;100.00;100494.23;1778097;77;25849;-78
2022/10/24 07:38:51;;;;;;;30.67;22.73;;;;;;;12.36;100.00;100489.78;1796857;78;25328;-78
2022/10/24 07:41:18;;;;;;;30.62;23.27;;;;;;;12.42;100.00;100492.20;1766476;80;26591;-78
2022/10/24 07:43:45;;;;;;;27.95;22.95;;;;;;;12.45;100.00;100482.38;1805472;78;25857;-78
2022/10/24 07:46:14;;;;;;;26.85;21.00;;;;;;;12.49;100.00;100481.77;1812807;77;27480;-78
2022/10/24 07:48:41;;;;;;;23.38;19.23;;;;;;;12.53;100.00;100476.30;1807268;78;26450;-78
2022/10/24 07:51:12;;;;;;;30.62;20.72;;;;;;;12.58;100.00;100473.02;1759282;80;25793;-78
2022/10/24 07:53:39;;;;;;;28.75;21.20;;;;;;;12.63;100.00;100468.70;1758961;80;26177;-83
2022/10/24 07:56:09;;;;;;;31.07;21.07;;;;;;;12.66;100.00;100464.80;1769634;80;25722;-83
2022/10/24 07:58:36;;;;;;;27.95;20.27;;;;;;;12.70;100.00;100462.81;1767361;80;27481;-80
2022/10/24 08:01:13;;;;;;;28.87;20.37;;;;;;;12.74;100.00;100460.56;1763292;80;25838;-80
2022/10/24 08:03:40;;;;;;;26.17;20.27;;;;;;;12.77;100.00;100456.11;1759963;80;25710;-78
2022/10/24 08:06:11;;;;;;;30.72;24.52;;;;;;;12.82;100.00;100462.55;1762169;80;26638;-79
2022/10/24 08:08:38;;;;;;;28.25;21.57;;;;;;;12.87;100.00;100461.94;1763364;80;26016;-77
2022/10/24 08:11:17;;;;;;;29.87;20.37;;;;;;;12.90;100.00;100458.30;1761280;80;27430;-78
2022/10/24 08:13:44;;;;;;;30.40;22.22;;;;;;;12.94;100.00;100456.02;1763048;80;25710;-77
2022/10/24 08:16:13;;;;;;;26.05;20.27;;;;;;;13.00;100.00;100457.92;1766589;80;25837;-78
2022/10/24 08:18:40;;;;;;;28.62;20.10;;;;;;;13.05;100.00;100446.04;1772810;80;25870;-84
2022/10/24 08:21:10;;;;;;;29.27;20.62;;;;;;;13.11;100.00;100454.11;1770503;80;25322;-84
2022/10/24 08:23:41;;;;;;;28.80;21.07;;;;;;;13.18;100.00;100453.28;1770779;80;27450;-84
2022/10/24 08:26:10;;;;;;;35.40;22.32;;;;;;;13.23;100.00;100449.46;1768092;80;25958;-83
2022/10/24 08:28:37;;;;;;;26.30;20.02;;;;;;;13.28;100.00;100452.37;1752114;80;26404;-81
2022/10/24 08:31:06;;;;;;;26.12;19.32;;;;;;;13.34;100.00;100462.30;1760016;80;25745;-82
2022/10/24 08:33:34;;;;;;;29.15;18.98;;;;;;;13.38;100.00;100457.64;1751075;80;25940;-86
2022/10/24 08:36:04;;;;;;;26.37;18.62;;;;;;;13.45;100.00;100461.67;1766311;80;27516;-79
2022/10/24 08:38:31;;;;;;;;;;;;;;;13.49;100.00;100461.56;1764776;80;25772;-79
2022/10/24 08:40:59;;;;;;;24.00;16.45;;;;;;;13.55;100.00;100458.02;1759309;80;25837;-79
2022/10/24 08:43:26;;;;;;;24.05;17.27;;;;;;;13.57;100.00;100454.09;1759365;80;25886;-79
2022/10/24 08:46:19;;;;;;;23.18;17.25;;;;;;;13.63;100.00;100455.94;1759648;80;25705;-79
2022/10/24 08:48:51;;;;;;;24.67;17.15;;;;;;;13.69;100.00;100442.15;1764635;80;28678;-80
2022/10/24 08:51:27;;;;;;;22.82;17.30;;;;;;;13.78;100.00;100443.58;1801482;78;26606;-80
2022/10/24 08:53:56;;;;;;;21.15;15.70;;;;;;;13.84;100.00;100436.84;1812207;77;25744;-80
2022/10/24 08:56:26;;;;;;;21.37;16.32;;;;;;;13.89;100.00;100434.34;1754982;80;25832;-80
2022/10/24 08:58:53;;;;;;;20.90;16.20;;;;;;;13.92;100.00;100438.48;1743439;80;26217;-80
2022/10/24 09:01:32;;;;;;;23.50;16.90;;;;;;;13.97;100.00;100439.17;1796464;78;27440;-80
2022/10/24 09:04:04;;;;;;;22.93;16.35;;;;;;;14.03;100.00;100448.58;1740153;80;25743;-80
2022/10/24 09:06:31;;;;;;;21.68;16.30;;;;;;;14.09;100.00;100451.78;1794014;78;25912;-80
2022/10/24 09:09:03;;;;;;;24.55;17.48;;;;;;;14.12;100.00;100450.51;1806063;77;26875;-80
2022/10/24 09:11:47;;;;;;;19.55;15.30;;;;;;;14.16;100.00;100451.73;1765162;80;25366;-79
2022/10/24 09:14:18;;;;;;;23.42;15.93;;;;;;;14.20;100.00;100452.44;1806569;77;27462;-80
2022/10/24 09:16:51;;;;;;;;;;;;;;;14.25;100.00;100455.84;1804872;77;25831;-78
2022/10/24 09:19:23;;;;;;;25.00;15.72;;;;;;;14.29;100.00;100454.41;1794133;78;25511;-78
2022/10/24 09:21:52;;;;;;;20.80;15.85;;;;;;;14.31;100.00;100453.67;1796439;77;26224;-78
2022/10/24 09:24:41;;;;;;;21.42;15.03;;;;;;;14.34;100.00;100446.00;1798311;78;25688;-78
2022/10/24 09:27:28;;;;;;;22.52;16.57;;;;;;;14.39;100.00;100454.25;1798550;77;27431;-78
2022/10/24 09:29:56;;;;;;;20.70;15.93;;;;;;;14.44;100.00;100453.61;1782622;78;26437;-78
2022/10/24 09:32:29;;;;;;;20.90;15.05;;;;;;;14.50;100.00;100451.39;1791229;78;25916;-78
2022/10/24 09:34:59;;;;;;;21.10;15.08;;;;;;;14.51;100.00;100455.25;1796079;78;26525;-78
2022/10/24 09:37:43;;;;;;;22.82;14.60;;;;;;;14.55;100.00;100451.08;1764064;80;33211;-78
2022/10/24 09:40:31;;;;;;;21.25;15.35;;;;;;;14.59;100.00;100448.25;1811445;77;27445;-78
2022/10/24 09:43:24;;;;;;;21.25;15.15;;;;;;;14.62;100.00;100447.83;1788154;79;26353;-78
2022/10/24 09:46:01;;;;;;;18.02;13.80;;;;;;;14.66;100.00;100453.09;1785557;78;25735;-79
2022/10/24 09:48:36;;;;;;;17.65;13.78;;;;;;;14.71;100.00;100459.70;1781371;78;25841;-80
2022/10/24 09:51:06;;;;;;;19.20;14.70;;;;;;;14.75;100.00;100449.61;1787407;79;25919;-79
2022/10/24 09:53:38;;;;;;;21.90;15.55;;;;;;;14.80;100.00;100451.11;1774425;79;27515;-79
2022/10/24 09:56:12;;;;;;;20.15;15.35;;;;;;;14.82;100.00;100450.37;1785751;78;25735;-79
2022/10/24 09:58:39;;;;;;;18.25;15.25;;;;;;;14.84;100.00;100445.59;1795463;79;25605;-79
2022/10/24 10:01:17;;;;;;;20.15;15.32;;;;;;;14.85;100.00;100443.20;1782464;78;25752;-79
2022/10/24 10:04:04;;;;;;;18.42;13.68;;;;;;;14.88;100.00;100443.30;1792979;78;25534;-79
2022/10/24 10:06:32;;;;;;;17.00;13.78;;;;;;;14.92;100.00;100449.39;1791989;79;27544;-80
2022/10/24 10:08:59;;;;;;;20.68;14.30;;;;;;;14.98;100.00;100445.81;1790160;79;25942;-79
2022/10/24 10:11:32;;;;;;;21.15;14.00;;;;;;;15.01;100.00;100438.61;1800322;78;25541;-79
2022/10/24 10:14:01;;;;;;;18.48;13.40;;;;;;;15.03;100.00;100439.77;1722567;81;25900;-79
2022/10/24 10:16:36;;;;;;;20.55;14.45;;;;;;;15.08;100.00;100438.56;1740735;80;25817;-78
2022/10/24 10:19:16;;;;;;;23.07;14.58;;;;;;;15.13;100.00;100439.58;1743992;80;27445;-78
2022/10/24 10:22:02;;;;;;;16.55;12.75;;;;;;;15.18;100.00;100441.07;1724482;80;25929;-79
2022/10/24 10:24:44;;;;;;;18.98;13.68;;;;;;;15.23;100.00;100444.45;1742784;80;25816;-79
2022/10/24 10:27:34;;;;;;;22.58;14.75;;;;;;;15.24;100.00;100439.38;1712902;82;25772;-78
2022/10/24 10:30:13;;;;;;;18.95;13.60;;;;;;;15.28;100.00;100444.63;1732339;81;26275;-79
2022/10/24 10:32:49;;;;;;;22.35;14.00;;;;;;;15.32;100.00;100431.83;1721644;82;46348;-79
2022/10/24 10:35:33;;;;;;;21.93;13.75;;;;;;;15.39;100.00;100432.61;1719193;81;25935;-79
2022/10/24 10:38:26;;;;;;;18.35;13.98;;;;;;;15.45;100.00;100434.95;1727457;81;26456;-79
2022/10/24 10:41:16;;;;;;;20.48;13.78;;;;;;;15.49;99.82;100433.98;1731392;81;26183;-78
2022/10/24 10:44:18;;;;;;;19.55;13.75;;;;;;;15.51;99.52;100438.12;1727068;81;26534;-78
2022/10/24 10:47:34;;;;;;;17.27;12.73;;;;;;;15.53;99.33;100449.52;1740491;81;27486;-78
2022/10/24 10:49:58;;;;;;;19.35;13.48;;;;;;;15.53;99.14;100445.47;1744852;81;25916;-79
2022/10/24 10:52:31;;;;;;;16.73;13.18;;;;;;;15.55;99.09;100447.94;1742739;81;25831;-79
2022/10/24 10:55:32;;;;;;;18.05;12.45;;;;;;;15.57;99.00;100445.31;1746662;81;25941;-79
2022/10/24 10:58:34;;;;;;;18.25;11.88;;;;;;;15.59;98.65;100443.77;1752300;81;25820;-79
2022/10/24 11:01:26;;;;;;;17.17;12.13;;;;;;;15.59;98.44;100439.17;1741349;80;27441;-79
2022/10/24 11:04:06;;;;;;;15.13;11.15;;;;;;;15.64;98.40;100433.94;1749431;80;25845;-80
2022/10/24 11:06:43;;;;;;;18.37;13.18;;;;;;;15.65;98.20;100434.25;1750083;81;26472;-80
2022/10/24 11:09:24;;;;;;;17.90;12.05;;;;;;;15.72;98.37;100434.16;1750303;80;26649;-79
2022/10/24 11:12:06;;;;;;;17.82;12.00;;;;;;;15.74;98.06;100436.94;1752103;81;25915;-79
2022/10/24 11:14:44;;;;;;;20.37;12.18;;;;;;;15.78;98.32;100432.73;1740436;81;27545;-79
2022/10/24 11:17:33;;;;;;;17.87;12.40;;;;;;;15.83;98.42;100431.55;1745802;81;25860;-80
2022/10/24 11:20:17;;;;;;;16.77;12.05;;;;;;;15.88;98.12;100435.77;1741648;80;25766;-78
2022/10/24 11:22:50;;;;;;;19.37;12.28;;;;;;;15.93;98.02;100436.44;1751594;81;25790;-79
2022/10/24 11:25:31;;;;;;;15.32;11.33;;;;;;;15.98;98.09;100436.56;1754191;81;25592;-79
2022/10/24 11:28:29;;;;;;;19.55;12.15;;;;;;;16.02;98.00;100430.49;1752065;81;27483;-79